Data for 11/09/2008

Time Sea-Level Adjusted Pressure Absolute Pressure Temperature Relative Humidity Dew Point   
(mb) (inHg) (mb) (inHg) (C) (F) (%) (C) (F)
00:05 1012 29.88 841 24.83 6 42.9 76 2.1 35.8
00:10 1012 29.88 841 24.83 6 42.7 75 2 35.5
00:15 1012 29.88 841 24.83 6.1 43 74 1.9 35.5
00:20 1012 29.88 841 24.83 6.2 43.1 74 1.9 35.4
00:25 1012 29.88 841 24.83 6.2 43.1 74 1.9 35.5
00:30 1012 29.88 841 24.83 6.1 43 74 1.8 35.3
00:35 1012 29.88 841 24.83 6.2 43.1 74 1.9 35.3
00:40 1012 29.88 841 24.83 6.1 43 74 1.8 35.3
00:45 1012 29.88 841 24.83 6.1 42.9 74 1.8 35.3
00:50 1012 29.88 841 24.83 6 42.8 75 2 35.6
00:55 1012 29.88 841 24.83 5.8 42.4 78 2.3 36.2
01:00 1012 29.88 841 24.83 5.6 42 80 2.4 36.3
01:05 1012 29.88 841 24.83 5.5 41.9 79 2.1 35.8
01:10 1012 29.88 841 24.83 5.4 41.7 78 1.9 35.5
01:15 1012 29.88 841 24.83 5.3 41.6 79 2 35.5
01:20 1012 29.88 841 24.83 5.3 41.6 80 2.2 35.9
01:25 1012 29.88 841 24.83 5.4 41.7 81 2.5 36.5
01:30 1012 29.88 841 24.83 5.4 41.7 82 2.5 36.6
01:35 1012 29.88 841 24.83 4.9 40.8 86 2.7 36.9
01:40 1012 29.88 841 24.83 5 41 83 2.3 36.2
01:45 1012 29.88 841 24.83 4.5 40.1 83 1.9 35.4
01:50 1012 29.88 841 24.83 4.1 39.4 89 2.5 36.5
01:55 1012 29.88 841 24.83 4.1 39.4 85 1.8 35.2
02:00 1012 29.88 841 24.83 3.9 39 86 1.7 35
02:05 1012 29.88 841 24.83 3.7 38.6 86 1.6 34.8
02:10 1012 29.88 841 24.83 3.5 38.3 87 1.6 34.9
02:15 1012 29.88 841 24.83 3.5 38.3 85 1.3 34.3
02:20 1012 29.88 841 24.83 3.7 38.7 85 1.4 34.6
02:25 1012 29.88 841 24.83 3.7 38.6 85 1.4 34.5
02:30 1012 29.88 841 24.83 3.5 38.2 86 1.3 34.4
02:35 1012 29.88 841 24.83 3.1 37.6 88 1.3 34.3
02:40 1012 29.88 841 24.83 2.9 37.3 88 1.1 34
02:45 1012 29.88 841 24.83 2.9 37.3 87 1 33.8
02:50 1012 29.88 841 24.83 2.8 37.1 88 1 33.9
02:55 1012 29.88 841 24.83 2.6 36.8 89 1 33.7
03:00 1012 29.88 841 24.83 2.4 36.3 89 0.8 33.5
03:05 1012 29.88 841 24.83 2.2 36 90 0.7 33.3
03:10 1012 29.88 841 24.83 2.2 36 90 0.7 33.3
03:15 1012 29.88 841 24.83 2.4 36.3 89 0.7 33.3
03:20 1011 29.85 841 24.83 2.4 36.4 89 0.8 33.4
03:25 1011 29.85 841 24.83 2.7 36.9 87 0.9 33.6
03:30 1011 29.85 841 24.83 2.6 36.8 88 0.9 33.7
03:35 1011 29.85 841 24.83 2.5 36.5 88 0.8 33.4
03:40 1011 29.85 841 24.83 2.8 37.1 85 0.6 33
03:45 1011 29.85 841 24.83 2.9 37.1 85 0.6 33.1
03:50 1011 29.85 840 24.81 2.9 37.1 84 0.4 32.8
03:55 1011 29.85 840 24.81 2.9 37.3 85 0.7 33.2
04:00 1011 29.85 840 24.81 2.6 36.7 87 0.6 33.1
04:05 1011 29.85 840 24.81 2.6 36.7 86 0.6 33
04:10 1011 29.85 840 24.81 2.7 36.9 85 0.5 32.9
04:15 1011 29.85 840 24.81 3.2 37.7 83 0.5 32.9
04:20 1011 29.85 840 24.81 2.8 37.1 86 0.7 33.2
04:25 1011 29.85 840 24.81 2.3 36.1 87 0.3 32.6
04:30 1011 29.85 840 24.81 2.2 36 88 0.4 32.7
04:35 1011 29.85 840 24.81 2.5 36.4 86 0.4 32.7
04:40 1011 29.85 840 24.81 2.5 36.5 85 0.2 32.4
04:45 1011 29.85 840 24.81 2.8 37.1 83 0.3 32.5
04:50 1011 29.85 840 24.81 2.9 37.2 83 0.2 32.4
04:55 1011 29.85 840 24.81 3.1 37.5 82 0.3 32.5
05:00 1011 29.85 840 24.81 2.8 37.1 83 0.2 32.4
05:05 1011 29.85 840 24.81 2.8 37 83 0.2 32.3
05:10 1011 29.85 840 24.81 2.8 37 82 0.1 32.1
05:15 1011 29.85 840 24.81 2.9 37.2 82 0.1 32.2
05:20 1011 29.85 840 24.81 3.1 37.5 81 0.1 32.2
05:25 1011 29.85 840 24.81 3.1 37.6 81 0.2 32.4
05:30 1011 29.85 840 24.81 3 37.3 81 0.1 32.1
05:35 1011 29.85 840 24.81 3 37.5 81 0.1 32.2
05:40 1011 29.85 840 24.81 3 37.4 81 0.1 32.2
05:45 1011 29.85 840 24.81 3 37.4 81 0.1 32.2
05:50 1011 29.85 840 24.81 3 37.3 81 0 32.1
05:55 1011 29.85 840 24.81 3.1 37.6 80 -0 31.9
06:00 1011 29.85 840 24.81 3.3 38 78 -0.1 31.8
06:05 1011 29.85 840 24.81 3.5 38.3 78 0.1 32.1
06:10 1011 29.85 840 24.81 3.7 38.6 76 -0.1 31.9
06:15 1011 29.85 840 24.81 3.6 38.5 78 0.1 32.2
06:20 1011 29.85 840 24.81 3.5 38.3 78 0 32
06:25 1011 29.85 840 24.81 3.5 38.2 78 -0.1 31.9
06:30 1010 29.83 840 24.81 3.6 38.4 77 -0.1 31.8
06:35 1010 29.83 840 24.81 3.8 38.9 76 -0 32
06:40 1010 29.83 840 24.81 3.8 38.8 76 -0 32
06:45 1010 29.83 840 24.81 3.6 38.5 78 0.1 32.1
06:50 1010 29.83 840 24.81 3.4 38.1 79 0.1 32.1
06:55 1010 29.83 840 24.81 3.1 37.5 80 -0 32
07:00 1010 29.83 840 24.81 2.8 37.1 82 0.1 32.1
07:05 1010 29.83 840 24.81 2.5 36.4 83 -0.2 31.7
07:10 1010 29.83 840 24.81 2.4 36.4 82 -0.3 31.5
07:15 1010 29.83 840 24.81 2.5 36.5 82 -0.2 31.7
07:20 1010 29.83 840 24.81 2.4 36.3 83 -0.3 31.5
07:25 1010 29.83 840 24.81 2.6 36.6 81 -0.3 31.4
07:30 1010 29.83 840 24.81 2.7 36.8 81 -0.3 31.5
07:35 1011 29.85 840 24.81 2.8 37 80 -0.3 31.5
07:40 1011 29.85 840 24.81 2.7 36.9 81 -0.2 31.6
07:45 1011 29.85 840 24.81 2.9 37.2 80 -0.3 31.5
07:50 1011 29.85 840 24.81 3.4 38.2 77 -0.3 31.4
07:55 1011 29.85 840 24.81 3.8 38.9 75 -0.1 31.7
08:00 1011 29.85 840 24.81 3.8 38.9 75 -0.1 31.8
08:05 1011 29.85 840 24.81 3.8 38.8 76 -0.1 31.9
08:10 1011 29.85 840 24.81 3.6 38.4 77 -0.1 31.7
08:15 1011 29.85 840 24.81 3.3 38 78 -0.1 31.8
08:20 1011 29.85 840 24.81 3.4 38.2 76 -0.3 31.4
08:25 1011 29.85 840 24.81 3.6 38.5 76 -0.3 31.5
08:30 1011 29.85 840 24.81 3.9 39 74 -0.3 31.4
08:35 1011 29.85 840 24.81 4.2 39.5 73 -0.3 31.5
08:40 1011 29.85 840 24.81 4.6 40.2 72 -0 31.9
08:45 1011 29.85 840 24.81 4.8 40.6 72 0.1 32.3
08:50 1011 29.85 840 24.81 4.8 40.6 72 0.1 32.2
08:55 1011 29.85 840 24.81 4.9 40.8 71 -0 32
09:00 1011 29.85 840 24.81 5.3 41.5 70 0.3 32.5
09:05 1011 29.85 840 24.81 5.5 41.9 70 0.4 32.7
09:10 1011 29.85 840 24.81 5.7 42.2 68 0.2 32.4
09:15 1011 29.85 840 24.81 5.7 42.3 68 0.3 32.6
09:20 1011 29.85 840 24.81 5.9 42.6 69 0.6 33
09:25 1011 29.85 840 24.81 5.9 42.7 68 0.6 33.1
09:30 1011 29.85 840 24.81 5.9 42.5 69 0.6 33.1
09:35 1011 29.85 840 24.81 5.8 42.5 69 0.6 33.1
09:40 1011 29.85 840 24.81 5.9 42.6 70 0.9 33.6
09:45 1011 29.85 840 24.81 6 42.7 70 1 33.8
09:50 1011 29.85 840 24.81 5.8 42.4 72 1.1 34
09:55 1011 29.85 840 24.81 5.9 42.5 72 1.2 34.1
10:00 1011 29.85 840 24.81 5.8 42.5 72 1.2 34.2
10:05 1011 29.85 840 24.81 6.2 43.2 69 1 33.8
10:10 1010 29.83 840 24.81 6.3 43.3 70 1.3 34.3
10:15 1010 29.83 840 24.81 6.2 43.2 70 1.2 34.1
10:20 1010 29.83 840 24.81 6.4 43.6 70 1.4 34.4
10:25 1010 29.83 840 24.81 6.6 43.9 69 1.3 34.3
10:30 1010 29.83 840 24.81 6.6 44 67 1 33.9
10:35 1010 29.83 840 24.81 7 44.6 66 1.1 33.9
10:40 1010 29.83 840 24.81 6.9 44.3 65 0.7 33.3
10:45 1010 29.83 840 24.81 6.9 44.5 63 0.5 32.8
10:50 1010 29.83 840 24.81 7.2 44.9 63 0.5 32.9
10:55 1010 29.83 840 24.81 7.2 44.9 61 0.3 32.5
11:00 1010 29.83 840 24.81 7 44.7 63 0.6 33
11:05 1010 29.83 840 24.81 6.9 44.4 63 0.4 32.8
11:10 1010 29.83 839 24.78 6.9 44.4 64 0.5 32.9
11:15 1010 29.83 839 24.78 7.3 45.1 62 0.5 32.9
11:20 1010 29.83 839 24.78 7.6 45.6 62 0.9 33.6
11:25 1010 29.83 839 24.78 7.2 45 64 0.9 33.7
11:30 1010 29.83 839 24.78 7 44.6 65 0.9 33.6
11:35 1010 29.83 839 24.78 6.9 44.5 67 1.2 34.1
11:40 1010 29.83 839 24.78 6.9 44.4 67 1.2 34.1
11:45 1010 29.83 839 24.78 7.1 44.8 65 1.1 34
11:50 1010 29.83 839 24.78 7.5 45.6 64 1.2 34.1
11:55 1010 29.83 839 24.78 7.8 46 63 1.2 34.2
12:00 1010 29.83 839 24.78 7.9 46.3 63 1.4 34.5
12:05 1010 29.83 839 24.78 8.4 47 60 1 33.9
12:10 1010 29.83 839 24.78 8.8 47.8 59 1.2 34.2
12:15 1010 29.83 839 24.78 8.9 48 60 1.5 34.7
12:20 1010 29.83 839 24.78 8.9 48 58 1.1 34
12:25 1010 29.83 839 24.78 9 48.1 58 1.1 34
12:30 1010 29.83 839 24.78 9 48.1 58 1.2 34.1
12:35 1010 29.83 839 24.78 9 48.1 59 1.4 34.4
12:40 1010 29.83 839 24.78 9.1 48.4 58 1.4 34.5
12:45 1010 29.83 839 24.78 9.1 48.3 58 1.4 34.4
12:50 1010 29.83 839 24.78 8.6 47.5 60 1.3 34.3
12:55 1010 29.83 839 24.78 8.9 48 58 1.1 33.9
13:00 1010 29.83 839 24.78 8.8 47.8 59 1.3 34.3
13:05 1010 29.83 839 24.78 8.6 47.4 59 1 33.9
13:10 1009 29.8 839 24.78 8.4 47.2 61 1.3 34.3
13:15 1009 29.8 839 24.78 8.4 47.1 60 1.1 33.9
13:20 1009 29.8 838 24.75 8.1 46.5 60 0.8 33.4
13:25 1009 29.8 838 24.75 8.1 46.5 59 0.6 33
13:30 1009 29.8 838 24.75 8.4 47.1 59 0.8 33.5
13:35 1009 29.8 839 24.78 8.6 47.4 59 1.1 33.9
13:40 1009 29.8 838 24.75 8.7 47.6 58 0.9 33.6
13:45 1009 29.8 838 24.75 8.8 47.8 58 1.1 34
13:50 1009 29.8 838 24.75 8.7 47.7 59 1.2 34.2
13:55 1009 29.8 838 24.75 8.9 48 58 1 33.9
14:00 1009 29.8 838 24.75 9.3 48.7 56 0.9 33.6
14:05 1009 29.8 838 24.75 9.4 48.8 56 1.1 34
14:10 1009 29.8 838 24.75 9.2 48.6 56 1 33.8
14:15 1009 29.8 838 24.75 8.9 48 57 0.9 33.6
14:20 1009 29.8 838 24.75 8.9 48.1 57 1 33.8
14:25 1009 29.8 838 24.75 9.1 48.3 57 1.1 34.1
14:30 1009 29.8 838 24.75 8.8 47.8 59 1.2 34.2
14:35 1009 29.8 838 24.75 8.6 47.5 60 1.4 34.5
14:40 1009 29.8 838 24.75 8.6 47.5 61 1.6 34.8
14:45 1009 29.8 838 24.75 8.8 47.9 61 1.8 35.2
14:50 1009 29.8 838 24.75 8.8 47.8 61 1.8 35.2
14:55 1009 29.8 838 24.75 8.7 47.7 61 1.7 35.1
15:00 1009 29.8 838 24.75 8.8 47.9 61 1.6 34.9
15:05 1009 29.8 838 24.75 9 48.1 60 1.7 35.1
15:10 1009 29.8 838 24.75 9.1 48.4 59 1.6 34.8
15:15 1009 29.8 838 24.75 9.3 48.7 59 1.8 35.3
15:20 1009 29.8 838 24.75 9.1 48.4 61 2.1 35.7
15:25 1009 29.8 838 24.75 9.1 48.5 62 2.3 36.1
15:30 1009 29.8 838 24.75 9.1 48.3 62 2.2 36
15:35 1009 29.8 838 24.75 9.1 48.4 62 2.2 36
15:40 1009 29.8 838 24.75 9.1 48.5 62 2.3 36.1
15:45 1009 29.8 838 24.75 9.2 48.5 64 2.7 36.8
15:50 1009 29.8 838 24.75 9.1 48.3 64 2.7 36.9
15:55 1009 29.8 838 24.75 9 48.2 65 2.9 37.2
16:00 1009 29.8 838 24.75 8.9 48 68 3.4 38.2
16:05 1009 29.8 838 24.75 8.7 47.7 70 3.5 38.3
16:10 1009 29.8 838 24.75 8.6 47.6 71 3.7 38.6
16:15 1009 29.8 838 24.75 8.5 47.3 72 3.7 38.7
16:20 1009 29.8 838 24.75 8.4 47 73 3.7 38.7
16:25 1009 29.8 838 24.75 8.3 46.9 73 3.8 38.8
16:30 1009 29.8 838 24.75 8.2 46.8 73 3.6 38.4
16:35 1009 29.8 838 24.75 8.1 46.6 73 3.5 38.3
16:40 1009 29.8 838 24.75 8 46.4 73 3.5 38.2
16:45 1009 29.8 838 24.75 8 46.3 73 3.4 38.1
16:50 1009 29.8 838 24.75 7.9 46.1 73 3.4 38.1
16:55 1009 29.8 838 24.75 7.7 45.9 74 3.4 38.2
17:00 1009 29.8 838 24.75 7.7 45.8 75 3.5 38.3
17:05 1009 29.8 838 24.75 7.6 45.7 75 3.4 38.2
17:10 1009 29.8 838 24.75 7.6 45.6 75 3.4 38.1
17:15 1009 29.8 838 24.75 7.4 45.4 76 3.5 38.2
17:20 1009 29.8 838 24.75 7.2 44.9 76 3.3 37.9
17:25 1009 29.8 838 24.75 7.1 44.7 76 3.2 37.7
17:30 1009 29.8 838 24.75 7 44.5 77 3.3 37.9
17:35 1009 29.8 838 24.75 6.8 44.3 77 3.1 37.7
17:40 1009 29.8 838 24.75 6.8 44.2 78 3.2 37.8
17:45 1009 29.8 838 24.75 6.7 44.1 78 3.2 37.7
17:50 1009 29.8 838 24.75 6.6 43.8 78 3 37.4
17:55 1009 29.8 838 24.75 6.5 43.7 79 3.1 37.6
18:00 1009 29.8 838 24.75 6.3 43.4 80 3.1 37.5
18:05 1009 29.8 838 24.75 6.3 43.3 80 3.1 37.6
18:10 1009 29.8 838 24.75 6.2 43.2 80 3 37.5
18:15 1009 29.8 838 24.75 6.3 43.3 80 3 37.5
18:20 1009 29.8 838 24.75 6.3 43.3 80 3.2 37.7
18:25 1009 29.8 838 24.75 6.3 43.3 80 3.2 37.7
18:30 1009 29.8 838 24.75 6.3 43.3 81 3.3 37.9
18:35 1009 29.8 838 24.75 6.3 43.3 81 3.3 37.9
18:40 1009 29.8 838 24.75 6.3 43.3 81 3.3 37.9
18:45 1009 29.8 838 24.75 6.1 43.1 82 3.2 37.8
18:50 1009 29.8 838 24.75 6 42.7 82 3.1 37.7
18:55 1009 29.8 838 24.75 5.9 42.6 83 3.2 37.7
19:00 1009 29.8 838 24.75 5.9 42.6 82 3.1 37.5
19:05 1009 29.8 838 24.75 5.9 42.6 81 3 37.3
19:10 1009 29.8 838 24.75 6 42.8 81 3 37.4
19:15 1009 29.8 838 24.75 6 42.7 82 3.1 37.5
19:20 1009 29.8 838 24.75 5.9 42.7 82 3.1 37.5
19:25 1009 29.8 839 24.78 5.9 42.7 82 3 37.5
19:30 1009 29.8 839 24.78 5.8 42.4 82 3 37.4
19:35 1009 29.8 839 24.78 5.5 41.8 83 2.9 37.2
19:40 1009 29.8 839 24.78 5.6 42.1 81 2.7 36.9
19:45 1009 29.8 839 24.78 5.8 42.4 80 2.6 36.7
19:50 1009 29.8 839 24.78 5.6 42.2 81 2.7 36.8
19:55 1009 29.8 839 24.78 5.3 41.5 82 2.5 36.5
20:00 1009 29.8 839 24.78 5.4 41.7 81 2.3 36.2
20:05 1009 29.8 839 24.78 5.5 41.9 79 2.1 35.8
20:10 1009 29.8 839 24.78 5.7 42.2 77 2 35.6
20:15 1009 29.8 839 24.78 5.6 42.1 78 2 35.6
20:20 1009 29.8 839 24.78 5.4 41.7 78 1.8 35.2
20:25 1009 29.8 839 24.78 5.5 41.9 78 2 35.6
20:30 1009 29.8 839 24.78 5.4 41.7 79 2.1 35.8
20:35 1009 29.8 839 24.78 5.2 41.4 80 2.1 35.8
20:40 1009 29.8 839 24.78 5.2 41.3 80 2 35.7
20:45 1010 29.83 839 24.78 5 41.1 81 2 35.6
20:50 1010 29.83 839 24.78 5 41 80 1.8 35.3
20:55 1010 29.83 839 24.78 5 41 79 1.7 35.1
21:00 1010 29.83 839 24.78 5 41.1 80 1.9 35.4
21:05 1010 29.83 839 24.78 5.3 41.5 79 1.9 35.4
21:10 1010 29.83 839 24.78 5.4 41.7 78 1.9 35.4
21:15 1010 29.83 839 24.78 5.4 41.8 78 1.9 35.4
21:20 1010 29.83 839 24.78 5.5 41.8 78 1.9 35.4
21:25 1010 29.83 839 24.78 5.5 41.8 77 1.8 35.2
21:30 1010 29.83 839 24.78 5.5 42 77 1.8 35.3
21:35 1010 29.83 839 24.78 5.5 42 77 1.9 35.4
21:40 1010 29.83 839 24.78 5.5 41.9 77 1.8 35.3
21:45 1010 29.83 839 24.78 5.5 41.8 78 1.9 35.4
21:50 1010 29.83 839 24.78 5.4 41.6 79 1.9 35.5
21:55 1010 29.83 839 24.78 5.3 41.5 80 2.1 35.7
22:00 1010 29.83 839 24.78 5.2 41.3 81 2.2 36
22:05 1010 29.83 839 24.78 5.2 41.3 82 2.3 36.2
22:10 1010 29.83 839 24.78 5.1 41.1 82 2.3 36.1
22:15 1010 29.83 839 24.78 4.9 40.8 83 2.2 36
22:20 1010 29.83 839 24.78 4.7 40.5 82 1.9 35.5
22:25 1010 29.83 839 24.78 4.9 40.8 80 1.7 35
22:30 1010 29.83 839 24.78 5.1 41.2 80 1.9 35.5
22:35 1010 29.83 839 24.78 5.1 41.1 80 2 35.5
22:40 1010 29.83 839 24.78 5 40.9 80 1.8 35.2
22:45 1010 29.83 839 24.78 4.8 40.6 82 2 35.7
22:50 1010 29.83 839 24.78 4.4 39.9 83 1.7 35.1
22:55 1010 29.83 839 24.78 4.4 39.9 83 1.7 35.1
23:00 1010 29.83 839 24.78 4.4 40 83 1.8 35.2
23:05 1010 29.83 839 24.78 4.4 39.9 83 1.8 35.3
23:10 1010 29.83 839 24.78 4.5 40 82 1.7 35.1
23:15 1010 29.83 839 24.78 4.7 40.4 82 1.8 35.2
23:20 1010 29.83 839 24.78 4.7 40.5 82 2 35.5
23:25 1010 29.83 839 24.78 4.2 39.5 85 1.8 35.3
23:30 1010 29.83 839 24.78 4 39.2 86 1.8 35.3
23:35 1010 29.83 839 24.78 3.9 39 86 1.8 35.2
23:40 1010 29.83 839 24.78 3.9 39.1 86 1.7 35.1
23:45 1010 29.83 839 24.78 4.2 39.5 85 1.9 35.3
23:50 1010 29.83 839 24.78 4.4 39.9 85 2 35.7
23:55 1010 29.83 839 24.78 4.8 40.6 82 2 35.6
24:00 1010 29.83 839 24.78 4.8 40.6 82 2 35.6